Time;durP1;ratioP1;P1;durP2;ratioP2;P2;SDS_P1;SDS_P2;PMS_P1;PMS_P2;Temp;Humidity;BMP_temperature;BMP_pressure;BME280_temperature;BME280_humidity;BME280_pressure;Samples;Min_cycle;Max_cycle;Signal;HPM_P1;HPM_P2
2022/08/26 00:01:40;;;;;;;8.05;4.97;;;;;;;21.13;51.07;92665.91;2071246;69;20172;-72
2022/08/26 00:04:10;;;;;;;5.35;4.82;;;;;;;20.91;51.74;92671.84;2071462;69;20584;-73
2022/08/26 00:06:37;;;;;;;5.88;4.90;;;;;;;20.97;52.03;92674.84;2071382;69;20294;-74
2022/08/26 00:09:04;;;;;;;5.22;4.57;;;;;;;20.91;52.48;92669.00;2071175;69;20160;-74
2022/08/26 00:11:30;;;;;;;6.10;4.63;;;;;;;20.99;52.11;92658.47;2070938;69;20655;-73
2022/08/26 00:13:59;;;;;;;5.53;4.90;;;;;;;20.82;52.76;92665.22;2071418;69;20148;-73
2022/08/26 00:16:43;;;;;;;5.65;4.90;;;;;;;20.94;51.85;92659.78;2071593;69;20610;-74
2022/08/26 00:19:09;;;;;;;5.30;4.70;;;;;;;20.97;51.38;92661.25;2071232;69;20148;-73
2022/08/26 00:21:35;;;;;;;5.88;4.90;;;;;;;20.85;52.63;92663.88;2071590;69;20232;-73
2022/08/26 00:24:02;;;;;;;5.50;4.88;;;;;;;20.77;52.64;92660.81;2071395;69;20203;-74
2022/08/26 00:26:32;;;;;;;6.30;4.72;;;;;;;20.48;53.95;92665.91;2068290;69;20674;-73
2022/08/26 00:29:06;;;;;;;6.80;5.10;;;;;;;20.51;53.06;92661.66;2071725;69;20144;-73
2022/08/26 00:31:32;;;;;;;8.15;4.93;;;;;;;20.49;54.01;92669.50;2068296;69;20148;-73
2022/08/26 00:33:59;;;;;;;5.20;4.68;;;;;;;20.71;52.61;92660.66;2071513;69;20634;-73
2022/08/26 00:36:26;;;;;;;5.80;4.60;;;;;;;20.75;51.98;92663.63;2071711;69;20152;-72
2022/08/26 00:38:52;;;;;;;7.15;5.00;;;;;;;20.90;51.19;92673.28;2071687;69;20159;-74
2022/08/26 00:41:19;;;;;;;5.55;5.05;;;;;;;20.64;53.00;92668.41;2068068;69;20156;-74
2022/08/26 00:43:46;;;;;;;6.50;4.90;;;;;;;20.54;53.06;92656.75;2071151;69;20510;-72
2022/08/26 00:46:27;;;;;;;6.68;5.15;;;;;;;20.61;51.74;92666.88;2071190;69;20591;-73
2022/08/26 00:49:01;;;;;;;7.95;5.20;;;;;;;20.63;52.55;92663.38;2071181;69;20580;-73
2022/08/26 00:51:27;;;;;;;6.47;5.03;;;;;;;20.51;52.80;92672.38;2071170;69;20164;-73
2022/08/26 00:54:00;;;;;;;6.80;5.10;;;;;;;20.62;52.38;92674.09;2071219;69;20171;-73
2022/08/26 00:56:45;;;;;;;6.93;4.97;;;;;;;20.53;53.27;92664.59;2071119;69;20155;-73
2022/08/26 00:59:12;;;;;;;5.60;4.45;;;;;;;20.60;51.60;92667.59;2067976;69;20140;-73
2022/08/26 01:01:41;;;;;;;5.47;4.97;;;;;;;20.70;50.84;92674.25;2070933;69;20176;-73
2022/08/26 01:04:08;;;;;;;6.10;4.75;;;;;;;20.77;51.22;92673.00;2071199;69;20267;-73
2022/08/26 01:06:34;;;;;;;6.63;4.45;;;;;;;20.66;51.72;92673.44;2067753;69;20218;-73
2022/08/26 01:09:00;;;;;;;5.32;4.57;;;;;;;20.48;52.82;92668.75;2070839;69;20164;-73
2022/08/26 01:11:26;;;;;;;5.40;4.82;;;;;;;20.30;54.08;92674.75;2070875;69;20154;-73
2022/08/26 01:13:54;;;;;;;11.77;5.30;;;;;;;20.39;53.38;92680.63;2071025;69;20613;-73
2022/08/26 01:16:20;;;;;;;6.88;5.07;;;;;;;20.33;52.71;92669.06;2071117;69;20255;-73
2022/08/26 01:18:47;;;;;;;6.50;5.22;;;;;;;20.27;53.66;92672.50;2071004;69;20148;-73
2022/08/26 01:21:24;;;;;;;5.88;5.28;;;;;;;20.14;54.45;92673.59;2071091;69;20176;-73
2022/08/26 01:23:51;;;;;;;7.00;5.32;;;;;;;20.06;54.43;92669.13;2071038;69;20150;-74
2022/08/26 01:26:40;;;;;;;6.45;5.38;;;;;;;20.12;53.92;92671.44;2071071;69;20614;-75
2022/08/26 01:29:11;;;;;;;6.30;4.88;;;;;;;20.21;51.68;92670.22;2071070;69;20140;-73
2022/08/26 01:31:56;;;;;;;5.78;4.93;;;;;;;20.13;54.33;92663.59;2070963;69;20148;-73
2022/08/26 01:34:29;;;;;;;7.57;4.63;;;;;;;20.28;52.81;92666.09;2071031;69;20156;-74
2022/08/26 01:37:19;;;;;;;6.45;5.15;;;;;;;20.18;53.00;92662.28;2071378;69;20136;-74
2022/08/26 01:39:49;;;;;;;7.03;5.05;;;;;;;20.21;51.86;92666.66;2071484;69;20667;-75
2022/08/26 01:42:21;;;;;;;7.05;5.35;;;;;;;20.03;53.83;92666.91;2071284;69;20553;-73
2022/08/26 01:45:15;;;;;;;6.85;5.13;;;;;;;19.60;55.65;92667.91;2071533;69;20140;-73
2022/08/26 01:47:44;;;;;;;9.30;4.90;;;;;;;19.99;53.77;92678.25;2071403;69;20172;-74
2022/08/26 01:50:16;;;;;;;7.03;4.97;;;;;;;20.02;54.03;92668.31;2071165;69;20167;-74
2022/08/26 01:52:46;;;;;;;7.43;5.50;;;;;;;19.85;54.58;92672.88;2067965;69;20240;-74
2022/08/26 01:55:16;;;;;;;8.63;5.15;;;;;;;19.90;53.88;92663.03;2071285;69;20146;-73
2022/08/26 01:58:16;;;;;;;7.25;5.35;;;;;;;19.79;55.18;92667.75;2068677;69;20494;-73
2022/08/26 02:00:44;;;;;;;7.22;5.47;;;;;;;19.73;55.36;92664.00;2071059;69;20150;-73
2022/08/26 02:03:16;;;;;;;8.82;5.22;;;;;;;19.81;54.58;92678.50;2068299;69;20280;-74
2022/08/26 02:06:05;;;;;;;6.20;5.20;;;;;;;19.76;55.03;92671.94;2071278;69;20151;-74
2022/08/26 02:08:46;;;;;;;6.63;5.53;;;;;;;19.94;54.36;92673.84;2067920;69;20225;-74
2022/08/26 02:11:12;;;;;;;6.28;4.78;;;;;;;19.89;53.68;92675.84;2067533;69;20179;-74
2022/08/26 02:13:48;;;;;;;7.93;5.47;;;;;;;19.87;54.54;92664.34;2070855;69;20610;-74
2022/08/26 02:16:20;;;;;;;7.82;5.00;;;;;;;20.02;52.73;92660.47;2070953;69;20202;-74
2022/08/26 02:18:47;;;;;;;5.72;4.80;;;;;;;19.87;54.86;92666.50;2070887;69;20559;-73
2022/08/26 02:21:13;;;;;;;6.45;5.60;;;;;;;19.59;56.06;92660.75;2067592;69;20192;-74
2022/08/26 02:23:39;;;;;;;8.10;5.07;;;;;;;19.79;54.83;92661.28;2070897;69;20210;-73
2022/08/26 02:26:15;;;;;;;6.10;5.30;;;;;;;19.91;54.09;92664.47;2070691;69;20255;-73
2022/08/26 02:29:04;;;;;;;7.05;5.13;;;;;;;20.02;53.85;92659.72;2071519;69;20151;-72
2022/08/26 02:31:30;;;;;;;6.68;4.80;;;;;;;20.15;52.36;92660.75;2071280;69;20240;-74
2022/08/26 02:34:14;;;;;;;9.27;4.97;;;;;;;20.18;53.19;92662.28;2071258;69;20251;-74
2022/08/26 02:36:41;;;;;;;6.63;5.00;;;;;;;19.89;53.49;92658.00;2068460;69;20634;-74
2022/08/26 02:39:11;;;;;;;7.65;5.63;;;;;;;19.74;54.80;92663.31;2071404;69;20164;-73
2022/08/26 02:41:37;;;;;;;7.50;5.25;;;;;;;19.78;53.42;92657.72;2071234;69;20159;-74
2022/08/26 02:44:05;;;;;;;7.90;5.72;;;;;;;19.84;53.72;92656.41;2071423;69;20167;-74
2022/08/26 02:46:32;;;;;;;5.50;5.00;;;;;;;19.85;52.88;92652.16;2071167;69;20523;-74
2022/08/26 02:48:59;;;;;;;8.32;5.10;;;;;;;19.84;54.22;92650.69;2071417;69;20183;-74
2022/08/26 02:51:26;;;;;;;5.55;5.05;;;;;;;19.79;54.02;92652.72;2071288;69;20255;-74
2022/08/26 02:53:55;;;;;;;5.88;4.80;;;;;;;19.91;52.81;92646.59;2071362;69;20156;-74
2022/08/26 02:56:23;;;;;;;8.13;5.45;;;;;;;19.84;54.26;92651.44;2071144;69;20270;-73
2022/08/26 02:58:50;;;;;;;7.75;5.15;;;;;;;19.90;53.26;92650.88;2071226;69;20213;-74
2022/08/26 03:01:26;;;;;;;5.82;4.78;;;;;;;19.71;54.77;92652.53;2071225;69;20156;-74
2022/08/26 03:03:54;;;;;;;7.55;5.07;;;;;;;19.77;54.20;92658.41;2068190;69;20591;-74
2022/08/26 03:06:20;;;;;;;7.10;4.80;;;;;;;19.73;54.00;92649.72;2071645;69;20195;-74
2022/08/26 03:08:46;;;;;;;5.38;4.88;;;;;;;19.58;55.83;92648.59;2071485;69;20247;-72
2022/08/26 03:11:12;;;;;;;5.57;4.97;;;;;;;19.24;56.73;92643.41;2071428;69;20137;-75
2022/08/26 03:13:38;;;;;;;5.88;5.28;;;;;;;19.49;54.21;92647.66;2071458;69;20239;-71
2022/08/26 03:16:04;;;;;;;5.50;4.88;;;;;;;19.40;55.93;92651.69;2071584;69;20235;-71
2022/08/26 03:18:30;;;;;;;7.30;5.30;;;;;;;19.28;56.56;92645.63;2071546;69;20144;-72
2022/08/26 03:20:56;;;;;;;5.88;5.25;;;;;;;19.37;54.99;92647.31;2068063;69;20581;-72
2022/08/26 03:23:22;;;;;;;5.65;5.00;;;;;;;19.58;53.67;92647.88;2071101;69;20148;-72
2022/08/26 03:25:50;;;;;;;8.77;4.80;;;;;;;19.55;54.14;92644.94;2071454;69;20582;-73
2022/08/26 03:28:15;;;;;;;6.00;5.40;;;;;;;19.37;56.15;92649.44;2071458;69;20257;-75
2022/08/26 03:30:41;;;;;;;7.38;6.15;;;;;;;19.32;55.29;92648.59;2071461;69;20144;-75
2022/08/26 03:33:10;;;;;;;5.80;5.30;;;;;;;19.39;55.13;92650.22;2071177;69;20156;-75
2022/08/26 03:35:37;;;;;;;7.50;5.32;;;;;;;19.35;55.52;92652.97;2071617;69;20280;-74
2022/08/26 03:38:03;;;;;;;6.43;5.55;;;;;;;19.34;55.13;92653.66;2071641;69;20160;-75
2022/08/26 03:40:32;;;;;;;6.75;5.22;;;;;;;19.55;53.71;92655.63;2071456;69;20145;-74
2022/08/26 03:42:59;;;;;;;6.43;5.40;;;;;;;19.54;54.17;92648.47;2071314;69;20594;-74
2022/08/26 03:45:24;;;;;;;6.43;5.43;;;;;;;19.41;54.10;92656.00;2071437;69;20194;-74
2022/08/26 03:47:50;;;;;;;6.03;5.43;;;;;;;19.37;54.76;92652.28;2071476;69;20168;-75
2022/08/26 03:50:20;;;;;;;5.90;5.30;;;;;;;19.13;55.56;92652.34;2071550;69;20561;-75
2022/08/26 03:52:47;;;;;;;6.97;5.20;;;;;;;19.15;54.96;92649.53;2071513;69;20240;-74
2022/08/26 03:55:14;;;;;;;6.10;5.50;;;;;;;19.26;55.68;92649.16;2071503;69;20350;-75
2022/08/26 03:57:40;;;;;;;7.05;5.30;;;;;;;19.19;56.09;92652.50;2071415;69;20606;-74
2022/08/26 04:00:08;;;;;;;7.45;5.30;;;;;;;19.12;55.85;92648.03;2071265;69;20517;-74
2022/08/26 04:02:34;;;;;;;6.82;5.47;;;;;;;19.14;56.14;92653.78;2071630;69;20148;-74
2022/08/26 04:04:59;;;;;;;6.78;5.60;;;;;;;19.15;55.64;92646.69;2068133;69;20500;-75
2022/08/26 04:07:25;;;;;;;8.43;5.43;;;;;;;18.93;56.79;92647.53;2071682;69;20175;-74
2022/08/26 04:09:57;;;;;;;7.03;5.78;;;;;;;18.68;57.69;92646.03;2071445;69;20218;-74
2022/08/26 04:12:25;;;;;;;6.97;5.82;;;;;;;18.86;56.37;92648.72;2071306;69;20136;-74
2022/08/26 04:14:51;;;;;;;5.80;5.03;;;;;;;18.89;56.25;92658.09;2071331;69;20649;-74
2022/08/26 04:17:18;;;;;;;6.47;5.70;;;;;;;19.01;55.84;92664.88;2071463;69;20236;-74
2022/08/26 04:19:44;;;;;;;5.95;5.35;;;;;;;18.95;55.74;92666.81;2071330;69;20140;-74
2022/08/26 04:22:10;;;;;;;6.00;5.38;;;;;;;19.00;55.04;92663.41;2071470;69;20197;-74
2022/08/26 04:24:38;;;;;;;7.20;5.28;;;;;;;18.95;55.79;92666.81;2067998;69;20151;-74
2022/08/26 04:27:05;;;;;;;7.03;5.18;;;;;;;18.96;55.25;92673.97;2071321;69;20217;-74
2022/08/26 04:29:31;;;;;;;6.15;5.55;;;;;;;18.81;56.42;92664.28;2067882;69;20239;-75
2022/08/26 04:31:56;;;;;;;6.95;5.90;;;;;;;18.93;54.27;92653.22;2071373;69;20128;-73
2022/08/26 04:34:25;;;;;;;6.18;5.45;;;;;;;18.88;56.45;92656.63;2071528;69;20167;-74
2022/08/26 04:36:50;;;;;;;7.85;5.47;;;;;;;18.90;55.68;92663.09;2071415;69;20183;-75
2022/08/26 04:39:19;;;;;;;6.10;5.50;;;;;;;19.14;54.70;92659.50;2071328;69;20231;-75
2022/08/26 04:41:45;;;;;;;7.30;5.80;;;;;;;19.04;54.87;92657.81;2071219;69;20160;-74
2022/08/26 04:44:12;;;;;;;5.80;5.30;;;;;;;19.09;54.35;92658.66;2071334;69;20554;-74
2022/08/26 04:46:38;;;;;;;7.03;5.25;;;;;;;19.11;55.05;92647.31;2071200;69;20164;-74
2022/08/26 04:49:05;;;;;;;6.80;5.65;;;;;;;18.93;55.22;92653.22;2071279;69;20756;-74
2022/08/26 04:51:32;;;;;;;5.80;5.18;;;;;;;18.90;57.03;92651.69;2071363;69;20156;-74
2022/08/26 04:53:58;;;;;;;8.32;5.10;;;;;;;18.96;56.47;92657.56;2071561;69;20156;-74
2022/08/26 04:56:26;;;;;;;6.20;5.22;;;;;;;19.06;55.21;92662.88;2071088;69;20155;-74
2022/08/26 04:58:52;;;;;;;7.30;5.43;;;;;;;18.83;55.24;92670.06;2071238;69;20152;-74
2022/08/26 05:01:19;;;;;;;7.88;5.35;;;;;;;18.69;56.39;92672.44;2067909;69;20634;-74
2022/08/26 05:03:45;;;;;;;6.75;5.47;;;;;;;19.00;54.53;92662.69;2067949;69;20631;-74
2022/08/26 05:06:11;;;;;;;5.57;4.90;;;;;;;19.08;54.31;92667.91;2070251;69;20262;-73
2022/08/26 05:08:37;;;;;;;5.72;5.13;;;;;;;19.08;54.73;92662.91;2071312;69;20572;-74
2022/08/26 05:11:05;;;;;;;10.65;5.72;;;;;;;19.16;53.30;92662.44;2071200;69;20140;-74
2022/08/26 05:13:31;;;;;;;5.97;5.15;;;;;;;18.83;55.15;92669.28;2071285;69;20152;-76
2022/08/26 05:16:02;;;;;;;6.18;5.45;;;;;;;18.67;55.72;92666.66;2071242;69;20512;-74
2022/08/26 05:18:28;;;;;;;5.72;5.22;;;;;;;18.94;54.78;92668.22;2071207;69;20176;-74
2022/08/26 05:20:54;;;;;;;8.10;5.25;;;;;;;19.05;54.60;92661.41;2071354;69;20144;-74
2022/08/26 05:23:21;;;;;;;7.00;5.00;;;;;;;19.17;53.80;92670.31;2070559;69;20163;-73
2022/08/26 05:25:48;;;;;;;6.55;5.30;;;;;;;19.21;54.37;92661.16;2071068;69;20231;-74
2022/08/26 05:28:17;;;;;;;6.13;4.82;;;;;;;19.32;52.33;92665.72;2069034;69;20162;-73
2022/08/26 05:30:43;;;;;;;7.38;5.30;;;;;;;19.05;55.87;92661.41;2070921;69;20152;-74
2022/08/26 05:33:09;;;;;;;5.90;5.20;;;;;;;19.17;54.46;92658.16;2070659;69;20163;-74
2022/08/26 05:35:37;;;;;;;5.88;4.88;;;;;;;19.13;53.47;92658.06;2070663;69;20170;-75
2022/08/26 05:38:08;;;;;;;5.88;5.28;;;;;;;19.17;54.45;92661.03;2070972;69;20175;-73
2022/08/26 05:40:39;;;;;;;6.00;5.40;;;;;;;19.18;54.49;92668.19;2071260;69;20163;-74
2022/08/26 05:43:09;;;;;;;7.57;5.40;;;;;;;19.22;54.44;92665.44;2070889;69;20587;-73
2022/08/26 05:45:40;;;;;;;5.97;5.25;;;;;;;19.27;52.43;92672.72;2071037;69;20156;-76
2022/08/26 05:48:08;;;;;;;9.40;5.60;;;;;;;19.10;55.47;92662.97;2070508;69;20144;-74
2022/08/26 05:50:39;;;;;;;9.93;5.93;;;;;;;19.21;54.48;92667.56;2071060;69;20222;-73
2022/08/26 05:53:06;;;;;;;6.68;5.97;;;;;;;18.97;55.02;92664.03;2071030;69;20147;-73
2022/08/26 05:55:32;;;;;;;6.82;5.25;;;;;;;19.11;55.65;92666.56;2071181;69;20136;-74
2022/08/26 05:57:58;;;;;;;7.63;5.55;;;;;;;19.20;54.08;92663.28;2067796;69;20348;-74
2022/08/26 06:00:23;;;;;;;8.20;5.72;;;;;;;18.81;57.09;92669.25;2071167;69;20657;-73
2022/08/26 06:02:49;;;;;;;6.00;5.40;;;;;;;18.99;56.17;92675.50;2071025;69;20511;-74
2022/08/26 06:05:15;;;;;;;6.03;5.35;;;;;;;19.03;56.32;92672.75;2071261;69;20152;-74
2022/08/26 06:10:25;;;;;;;5.55;4.95;;;;;;;19.11;56.68;92677.97;2065542;69;20144;-74
2022/08/26 06:12:51;;;;;;;7.97;6.00;;;;;;;18.35;59.60;92678.53;2071108;69;20234;-74
2022/08/26 06:15:17;;;;;;;9.00;6.07;;;;;;;18.83;57.74;92683.56;2071200;69;20171;-74
2022/08/26 06:17:43;;;;;;;5.68;4.95;;;;;;;18.92;58.04;92677.44;2067912;69;20248;-71
2022/08/26 06:20:09;;;;;;;6.30;5.32;;;;;;;19.01;57.79;92684.84;2071284;69;20163;-74
2022/08/26 06:25:37;;;;;;;7.88;5.35;;;;;;;19.13;57.20;92678.03;2071174;69;20193;-74
2022/08/26 06:28:04;;;;;;;5.97;5.05;;;;;;;19.19;56.81;92672.47;2071096;69;20627;-73
2022/08/26 06:30:31;;;;;;;10.13;6.10;;;;;;;18.56;59.15;92684.88;2070975;69;20515;-74
2022/08/26 06:32:56;;;;;;;7.88;6.45;;;;;;;19.03;55.60;92682.03;2070383;69;20148;-74
2022/08/26 06:35:22;;;;;;;8.05;5.55;;;;;;;19.08;57.89;92682.88;2071025;69;20209;-71
2022/08/26 06:37:48;;;;;;;7.82;5.65;;;;;;;19.20;56.36;92679.66;2071266;69;20155;-71
2022/08/26 06:40:14;;;;;;;7.20;5.50;;;;;;;19.14;55.84;92679.47;2070963;69;20141;-72
2022/08/26 06:42:40;;;;;;;9.52;5.53;;;;;;;19.41;55.47;92678.09;2070942;69;20180;-73
2022/08/26 06:45:07;;;;;;;8.23;5.45;;;;;;;19.76;53.86;92677.66;2071172;69;20150;-73
2022/08/26 06:47:32;;;;;;;6.13;5.22;;;;;;;20.00;54.86;92679.69;2071212;69;20144;-74
2022/08/26 06:49:58;;;;;;;7.40;5.43;;;;;;;20.31;56.26;92672.59;2071093;69;20164;-74
2022/08/26 06:52:23;;;;;;;10.15;5.35;;;;;;;20.45;52.13;92672.94;2071152;69;20152;-72
2022/08/26 06:54:49;;;;;;;7.22;5.90;;;;;;;20.37;54.07;92672.75;2071144;69;20244;-72
2022/08/26 06:57:15;;;;;;;10.35;5.25;;;;;;;20.90;52.44;92670.41;2070939;69;20203;-73
2022/08/26 06:59:40;;;;;;;7.60;5.20;;;;;;;21.05;52.37;92666.44;2070918;69;20184;-73
2022/08/26 07:02:06;;;;;;;5.55;5.05;;;;;;;21.59;52.41;92668.28;2070682;69;20160;-75
2022/08/26 07:04:33;;;;;;;8.15;5.07;;;;;;;21.83;52.49;92671.59;2071064;69;20225;-74
2022/08/26 07:06:59;;;;;;;5.40;4.90;;;;;;;22.09;52.25;92674.22;2070920;69;20176;-75
2022/08/26 07:09:28;;;;;;;7.07;5.18;;;;;;;22.31;50.67;92686.09;2070831;69;20159;-74
2022/08/26 07:11:57;;;;;;;6.57;4.95;;;;;;;22.44;49.03;92684.13;2070897;69;20228;-75
2022/08/26 07:14:24;;;;;;;6.13;5.20;;;;;;;22.37;48.44;92676.88;2070766;69;20164;-75
2022/08/26 07:16:50;;;;;;;7.75;5.05;;;;;;;22.83;48.94;92676.16;2070970;69;20170;-73
2022/08/26 07:19:17;;;;;;;5.50;4.78;;;;;;;23.11;48.76;92675.84;2067644;69;20186;-73
2022/08/26 07:21:43;;;;;;;6.63;4.75;;;;;;;23.30;47.39;92677.53;2070956;69;20151;-74
2022/08/26 07:24:10;;;;;;;8.02;5.50;;;;;;;23.69;47.38;92677.34;2070960;69;20588;-74
2022/08/26 07:26:35;;;;;;;5.53;4.85;;;;;;;23.61;47.02;92677.94;2070838;69;20155;-74
2022/08/26 07:29:01;;;;;;;7.13;4.40;;;;;;;23.68;46.96;92684.50;2071059;69;20141;-75
2022/08/26 07:31:31;;;;;;;4.82;4.30;;;;;;;23.79;46.47;92674.56;2071161;69;20228;-75
2022/08/26 07:33:57;;;;;;;5.03;4.40;;;;;;;23.87;47.03;92679.66;2071062;69;20210;-76
2022/08/26 07:36:24;;;;;;;6.82;4.72;;;;;;;24.02;45.87;92676.25;2071024;69;20141;-76
2022/08/26 07:38:51;;;;;;;7.75;4.90;;;;;;;24.15;46.03;92665.59;2070986;69;20175;-75
2022/08/26 07:41:18;;;;;;;5.25;4.75;;;;;;;23.91;46.51;92676.84;2070878;69;20205;-75
2022/08/26 07:43:44;;;;;;;7.32;5.00;;;;;;;24.16;44.61;92669.91;2070982;69;20562;-76
2022/08/26 07:46:13;;;;;;;6.72;4.60;;;;;;;24.09;45.47;92672.00;2070904;69;20160;-76
2022/08/26 07:48:41;;;;;;;7.40;4.55;;;;;;;24.65;44.24;92667.50;2070987;69;20148;-75
2022/08/26 07:51:06;;;;;;;7.57;4.25;;;;;;;25.07;43.82;92667.09;2071089;69;20156;-75
2022/08/26 07:53:34;;;;;;;5.55;4.53;;;;;;;25.21;42.82;92669.34;2071513;69;20141;-76
2022/08/26 07:55:59;;;;;;;6.05;4.65;;;;;;;25.40;43.12;92666.56;2071439;69;20252;-75
2022/08/26 07:58:25;;;;;;;4.82;4.32;;;;;;;26.06;41.14;92663.19;2071571;69;20140;-78
2022/08/26 08:00:51;;;;;;;6.32;4.22;;;;;;;26.13;40.45;92648.81;2071464;69;20235;-75
2022/08/26 08:03:16;;;;;;;7.13;4.20;;;;;;;25.93;39.70;92655.25;2071505;69;20206;-75
2022/08/26 08:05:42;;;;;;;5.78;4.72;;;;;;;26.32;39.20;92651.00;2071419;69;20592;-74
2022/08/26 08:08:08;;;;;;;7.13;4.40;;;;;;;26.63;40.30;92650.34;2071457;69;20174;-76
2022/08/26 08:10:35;;;;;;;6.47;4.50;;;;;;;26.88;39.66;92651.03;2071452;69;20168;-77
2022/08/26 08:13:02;;;;;;;5.03;4.53;;;;;;;26.76;38.81;92651.78;2071316;69;20605;-76
2022/08/26 08:15:30;;;;;;;5.03;4.53;;;;;;;26.54;38.95;92644.53;2071306;69;20152;-77
2022/08/26 08:17:56;;;;;;;5.05;4.55;;;;;;;26.96;39.52;92648.13;2071496;69;20207;-77
2022/08/26 08:20:22;;;;;;;6.13;4.20;;;;;;;27.56;39.37;92641.50;2071465;69;20225;-78
2022/08/26 08:22:49;;;;;;;4.68;4.10;;;;;;;31.10;32.22;92648.09;2071522;69;20213;-78
2022/08/26 08:25:15;;;;;;;6.10;4.20;;;;;;;29.07;36.32;92637.69;2071524;69;20477;-78
2022/08/26 08:27:43;;;;;;;6.45;4.03;;;;;;;28.55;35.64;92635.94;2071225;69;20256;-78
2022/08/26 08:30:11;;;;;;;4.30;3.90;;;;;;;28.78;36.46;92642.28;2071459;69;20619;-77
2022/08/26 08:32:39;;;;;;;4.43;4.03;;;;;;;28.85;36.62;92634.97;2071365;69;20217;-77
2022/08/26 08:35:07;;;;;;;5.75;3.70;;;;;;;32.18;31.09;92639.53;2071411;69;20235;-77
2022/08/26 08:37:33;;;;;;;6.32;3.95;;;;;;;33.28;29.16;92633.38;2071341;69;20136;-77
2022/08/26 08:39:59;;;;;;;7.93;4.20;;;;;;;29.37;33.84;92636.66;2071423;69;20652;-77
2022/08/26 08:42:42;;;;;;;4.28;3.88;;;;;;;28.90;34.40;92630.56;2071320;69;20323;-78
2022/08/26 08:45:31;;;;;;;4.40;4.00;;;;;;;30.47;33.02;92633.84;2071523;69;20531;-79
2022/08/26 08:48:01;;;;;;;4.47;4.07;;;;;;;29.31;34.40;92624.41;2068005;69;20196;-78
2022/08/26 08:50:34;;;;;;;6.63;3.65;;;;;;;29.93;33.79;92630.97;2071516;69;20186;-78
2022/08/26 08:53:21;;;;;;;5.38;3.95;;;;;;;29.74;32.24;92621.06;2071940;69;20187;-78
2022/08/26 08:56:02;;;;;;;4.13;3.80;;;;;;;30.23;32.74;92617.50;2071473;69;20274;-78
2022/08/26 08:58:52;;;;;;;6.05;3.95;;;;;;;30.88;33.14;92607.78;2071452;69;20247;-79
2022/08/26 09:01:50;;;;;;;5.70;3.85;;;;;;;32.22;31.34;92616.16;2071477;69;20148;-76
2022/08/26 09:04:37;;;;;;;5.53;4.10;;;;;;;32.49;29.70;92609.78;2070007;69;20223;-77
2022/08/26 09:07:08;;;;;;;4.30;3.70;;;;;;;32.89;28.67;92608.78;2071494;69;20159;-78
2022/08/26 09:09:39;;;;;;;4.53;3.83;;;;;;;32.60;29.01;92596.38;2071499;69;20156;-76
2022/08/26 09:12:12;;;;;;;6.00;3.63;;;;;;;31.93;30.02;92595.66;2071215;69;20164;-78
2022/08/26 09:14:37;;;;;;;5.53;3.67;;;;;;;30.76;32.52;92590.59;2071376;69;20306;-78
2022/08/26 09:17:30;;;;;;;7.10;3.30;;;;;;;31.31;30.26;92584.53;2071346;69;20152;-78
2022/08/26 09:20:39;;;;;;;4.50;3.70;;;;;;;31.40;31.64;92581.47;2069349;69;20509;-79
2022/08/26 09:23:05;;;;;;;4.57;3.35;;;;;;;32.45;30.28;92586.56;2068227;69;20148;-78
2022/08/26 09:25:31;;;;;;;5.35;3.75;;;;;;;32.41;30.51;92575.72;2071319;69;20629;-78
2022/08/26 09:27:57;;;;;;;5.25;3.30;;;;;;;33.06;30.74;92582.88;2067788;69;20154;-78
2022/08/26 09:30:33;;;;;;;4.20;3.25;;;;;;;33.76;28.24;92581.00;2067981;69;20162;-78
2022/08/26 09:33:00;;;;;;;3.75;3.10;;;;;;;33.14;28.00;92568.09;2071370;69;20555;-80
2022/08/26 09:35:34;;;;;;;3.58;3.17;;;;;;;32.82;27.67;92566.69;2071439;69;20148;-79
2022/08/26 09:38:00;;;;;;;6.22;3.20;;;;;;;33.26;29.61;92561.19;2071271;69;20359;-79
2022/08/26 09:40:33;;;;;;;6.57;3.10;;;;;;;33.88;29.91;92563.16;2071338;69;20151;-79
2022/08/26 09:43:04;;;;;;;;;;;;;;;33.05;28.20;92555.22;2071255;69;20511;-78
2022/08/26 09:45:30;;;;;;;4.90;3.05;;;;;;;33.54;27.56;92553.91;2071349;69;20049;-79
2022/08/26 09:47:57;;;;;;;4.63;3.30;;;;;;;32.86;27.96;92554.22;2071220;69;20136;-79
2022/08/26 09:50:27;;;;;;;3.40;3.20;;;;;;;33.66;27.83;92543.38;2071388;69;20584;-79
2022/08/26 09:53:08;;;;;;;6.57;3.28;;;;;;;32.94;28.64;92538.75;2071358;69;20156;-79
2022/08/26 09:55:35;;;;;;;3.63;2.70;;;;;;;33.55;27.32;92543.66;2071314;69;20152;-78
2022/08/26 09:58:00;;;;;;;3.20;2.90;;;;;;;34.58;26.53;92547.88;2071213;69;20492;-79
2022/08/26 10:00:35;;;;;;;4.93;2.80;;;;;;;34.35;27.43;92539.09;2071286;69;20144;-79
2022/08/26 10:03:09;;;;;;;5.65;3.22;;;;;;;35.22;27.05;92534.09;2068050;69;20685;-78
2022/08/26 10:05:54;;;;;;;3.47;2.90;;;;;;;36.16;26.46;92531.44;2071325;69;20156;-79
2022/08/26 10:08:50;;;;;;;4.57;3.00;;;;;;;35.87;26.28;92526.63;2067890;69;20516;-79
2022/08/26 10:11:36;;;;;;;2.95;2.70;;;;;;;36.45;24.95;92525.19;2070777;69;20235;-78
2022/08/26 10:14:11;;;;;;;3.00;2.50;;;;;;;37.36;24.85;92520.69;2071052;69;20154;-80
2022/08/26 10:16:45;;;;;;;5.00;2.80;;;;;;;36.06;23.67;92517.16;2071290;69;20223;-80
2022/08/26 10:19:18;;;;;;;2.53;2.33;;;;;;;37.18;23.19;92506.09;2071267;69;20132;-78
2022/08/26 10:22:00;;;;;;;2.60;2.40;;;;;;;37.17;24.63;92510.53;2071285;69;20136;-80
2022/08/26 10:24:35;;;;;;;4.78;2.50;;;;;;;37.27;23.00;92513.72;2071394;69;20148;-82
2022/08/26 10:27:21;;;;;;;4.72;2.47;;;;;;;37.47;23.00;92506.28;2070369;69;20710;-80
2022/08/26 10:29:51;;;;;;;5.30;2.60;;;;;;;37.11;23.99;92508.56;2070924;69;20160;-80
2022/08/26 10:32:34;;;;;;;9.02;3.03;;;;;;;37.55;23.86;92505.22;2070995;69;20152;-78
2022/08/26 10:35:00;;;;;;;5.85;2.80;;;;;;;37.22;23.02;92502.97;2070710;69;20176;-79
2022/08/26 10:37:35;;;;;;;5.32;2.70;;;;;;;37.82;23.21;92501.81;2070796;69;20195;-78
2022/08/26 10:40:19;;;;;;;4.03;2.55;;;;;;;38.41;22.30;92499.09;2071411;69;20135;-81
2022/08/26 10:43:05;;;;;;;4.28;2.65;;;;;;;38.90;22.20;92493.75;2071613;69;20242;-81
2022/08/26 10:45:41;;;;;;;7.32;2.50;;;;;;;38.64;21.86;92498.72;2071675;69;20160;-82
2022/08/26 10:48:24;;;;;;;5.00;2.40;;;;;;;39.07;22.46;92496.59;2071400;69;20225;-81
2022/08/26 10:50:51;;;;;;;5.50;2.85;;;;;;;39.37;21.64;92494.38;2071737;69;20591;-79
2022/08/26 10:53:54;;;;;;;5.03;2.20;;;;;;;39.24;19.86;92487.69;2071555;69;20603;-82
2022/08/26 10:56:48;;;;;;;;;;;;;;;;;;;;;
2022/08/26 10:59:34;;;;;;;8.30;1.80;;;;;;;42.05;17.95;92474.72;2071291;69;20132;-81
2022/08/26 11:02:13;;;;;;;3.65;2.38;;;;;;;39.47;17.33;92473.22;2071109;69;20512;-79
2022/08/26 11:04:48;;;;;;;2.65;1.50;;;;;;;37.98;19.08;92459.94;2070527;69;20226;-80
2022/08/26 11:07:39;;;;;;;6.57;2.03;;;;;;;44.02;15.67;92474.34;2070717;69;20615;-81
2022/08/26 11:10:20;;;;;;;2.78;1.95;;;;;;;45.08;15.31;92472.66;2071251;69;20121;-81
2022/08/26 11:12:47;;;;;;;2.60;1.50;;;;;;;45.69;13.02;92465.06;2070750;69;20208;-81
2022/08/26 11:15:19;;;;;;;2.67;1.70;;;;;;;46.26;13.28;92465.88;2070515;69;20223;-81
2022/08/26 11:17:44;;;;;;;3.42;1.63;;;;;;;47.02;12.50;92446.31;2067376;69;20186;-81
2022/08/26 11:20:16;;;;;;;1.95;1.50;;;;;;;46.84;12.60;92450.78;2070682;69;20136;-79
2022/08/26 11:22:43;;;;;;;2.95;1.40;;;;;;;46.87;13.42;92449.72;2070587;69;20147;-78
2022/08/26 11:25:12;;;;;;;3.15;1.30;;;;;;;48.36;11.56;92452.00;2070501;69;20207;-77
2022/08/26 11:27:37;;;;;;;2.80;1.35;;;;;;;46.93;10.83;92439.63;2071020;69;20496;-77
2022/08/26 11:30:12;;;;;;;5.10;1.30;;;;;;;48.47;10.69;92445.84;2071079;69;20135;-77
2022/08/26 11:32:38;;;;;;;3.83;1.25;;;;;;;48.81;10.10;92439.09;2071187;69;20184;-79
2022/08/26 11:35:06;;;;;;;2.00;1.20;;;;;;;49.14;10.46;92441.44;2071085;69;20191;-79
2022/08/26 11:37:36;;;;;;;1.85;1.10;;;;;;;50.58;10.83;92436.78;2070962;69;20148;-79
2022/08/26 11:40:07;;;;;;;2.42;1.20;;;;;;;50.48;9.64;92437.06;2071067;69;20147;-81
2022/08/26 11:42:39;;;;;;;;;;;;;;;50.41;8.85;92430.28;2071256;69;20469;-79
2022/08/26 11:45:26;;;;;;;2.40;1.17;;;;;;;49.07;9.25;92421.03;2071023;69;20179;-79
2022/08/26 11:47:53;;;;;;;2.60;0.90;;;;;;;49.78;9.97;92407.06;2070920;69;20201;-80
2022/08/26 11:50:25;;;;;;;3.65;1.30;;;;;;;49.45;9.69;92403.47;2071099;69;20151;-80
2022/08/26 11:53:05;;;;;;;2.45;1.00;;;;;;;48.90;9.91;92403.22;2071311;69;20157;-81
2022/08/26 11:55:34;;;;;;;1.33;1.05;;;;;;;52.18;9.42;92400.50;2071231;69;20159;-81